createdAt,value
2018-04-02T00:02:14.304Z,95506.98
2018-04-02T00:04:41.875Z,95512.23
2018-04-02T00:07:10.397Z,95521.56
2018-04-02T00:09:37.940Z,95518.30
2018-04-02T00:12:05.484Z,95523.45
2018-04-02T00:14:33.057Z,95527.05
2018-04-02T00:17:00.639Z,95524.72
2018-04-02T00:19:28.583Z,95527.50
2018-04-02T00:21:56.140Z,95523.48
2018-04-02T00:24:23.690Z,95537.11
2018-04-02T00:26:51.253Z,95540.44
2018-04-02T00:29:18.998Z,95545.69
2018-04-02T00:31:46.541Z,95544.19
2018-04-02T00:34:14.108Z,95548.27
2018-04-02T00:36:41.685Z,95556.57
2018-04-02T00:39:10.331Z,95558.90
2018-04-02T00:41:38.531Z,95554.23
2018-04-02T00:44:06.219Z,95563.29
2018-04-02T00:46:33.786Z,95568.36
2018-04-02T00:49:01.368Z,95563.80
2018-04-02T00:51:28.917Z,95561.33
2018-04-02T00:53:56.485Z,95567.27
2018-04-02T00:56:24.038Z,95578.83
2018-04-02T00:58:51.611Z,95569.77
2018-04-02T01:01:19.198Z,95589.56
2018-04-02T01:03:46.728Z,95598.14
2018-04-02T01:06:14.286Z,95597.17
2018-04-02T01:08:41.834Z,95595.97
2018-04-02T01:11:09.759Z,95601.81
2018-04-02T01:13:37.450Z,95603.48
2018-04-02T01:16:05.018Z,95619.13
2018-04-02T01:18:32.564Z,95610.54
2018-04-02T01:21:00.173Z,95613.17
2018-04-02T01:23:27.729Z,95614.45
2018-04-02T01:25:55.295Z,95614.33
2018-04-02T01:28:22.879Z,95615.75
2018-04-02T01:30:50.420Z,95625.17
2018-04-02T01:33:17.963Z,95627.46
2018-04-02T01:35:45.527Z,95631.71
2018-04-02T01:38:13.091Z,95638.27
2018-04-02T01:40:40.629Z,95633.95
2018-04-02T01:43:08.747Z,95634.25
2018-04-02T01:45:36.870Z,95634.13
2018-04-02T01:48:04.365Z,95630.41
2018-04-02T01:50:32.647Z,95642.27
2018-04-02T01:53:00.142Z,95637.33
2018-04-02T01:55:28.446Z,95642.17
2018-04-02T01:57:56.041Z,95650.60
2018-04-02T02:00:23.607Z,95640.87
2018-04-02T02:02:51.184Z,95644.84
2018-04-02T02:05:20.287Z,95644.52
2018-04-02T02:07:47.814Z,95645.25
2018-04-02T02:10:15.392Z,95643.98
2018-04-02T02:12:42.966Z,95639.13
2018-04-02T02:15:15.434Z,95638.77
2018-04-02T02:17:43.485Z,95643.83
2018-04-02T02:20:12.519Z,95639.95
2018-04-02T02:22:40.090Z,95639.73
2018-04-02T02:25:11.224Z,95648.62
2018-04-02T02:27:38.996Z,95653.06
2018-04-02T02:30:06.549Z,95661.48
2018-04-02T02:32:34.092Z,95667.28
2018-04-02T02:35:01.666Z,95668.77
2018-04-02T02:37:30.126Z,95662.59
2018-04-02T02:39:57.698Z,95658.00
2018-04-02T02:42:29.167Z,95648.62
2018-04-02T02:45:00.457Z,95662.38
2018-04-02T02:47:31.454Z,95664.91
2018-04-02T02:49:59.120Z,95667.28
2018-04-02T02:52:26.699Z,95666.69
2018-04-02T02:54:54.333Z,95667.31
2018-04-02T02:57:23.769Z,95667.98
2018-04-02T02:59:51.409Z,95667.51
2018-04-02T03:02:19.092Z,95663.20
2018-04-02T03:04:47.537Z,95666.33
2018-04-02T03:07:15.309Z,95671.11
2018-04-02T03:09:42.935Z,95681.70
2018-04-02T03:12:10.617Z,95677.03
2018-04-02T03:14:38.200Z,95688.86
2018-04-02T03:17:06.994Z,95692.09
2018-04-02T03:19:34.983Z,95693.19
2018-04-02T03:22:02.555Z,95685.83
2018-04-02T03:24:30.126Z,95684.12
2018-04-02T03:26:57.707Z,95684.44
2018-04-02T03:29:25.355Z,95689.22
2018-04-02T03:31:52.999Z,95685.51
2018-04-02T03:34:20.538Z,95692.91
2018-04-02T03:36:48.111Z,95696.52
2018-04-02T03:39:15.899Z,95689.18
2018-04-02T03:41:43.446Z,95684.45
2018-04-02T03:44:11.254Z,95682.45
2018-04-02T03:46:39.058Z,95698.69
2018-04-02T03:49:07.076Z,95692.34
2018-04-02T03:51:35.276Z,95691.64
2018-04-02T03:54:02.972Z,95692.38
2018-04-02T03:56:30.545Z,95693.89
2018-04-02T03:58:58.153Z,95694.56
2018-04-02T04:01:25.724Z,95689.30
2018-04-02T04:03:53.544Z,95683.14
2018-04-02T04:06:21.107Z,95691.55
2018-04-02T04:08:48.686Z,95696.94
2018-04-02T04:11:16.522Z,95692.55
2018-04-02T04:13:44.122Z,95692.48
2018-04-02T04:16:11.817Z,95690.84
2018-04-02T04:18:39.370Z,95698.19
2018-04-02T04:21:07.294Z,95703.25
2018-04-02T04:23:35.442Z,95702.94
2018-04-02T04:26:03.092Z,95697.86
2018-04-02T04:28:30.637Z,95702.63
2018-04-02T04:30:58.188Z,95704.75
2018-04-02T04:33:25.859Z,95710.13
2018-04-02T04:35:53.468Z,95714.45
2018-04-02T04:38:21.105Z,95714.52
2018-04-02T04:40:48.904Z,95722.47
2018-04-02T04:43:17.213Z,95722.47
2018-04-02T04:45:44.826Z,95725.66
2018-04-02T04:48:12.600Z,95720.24
2018-04-02T04:50:40.153Z,95714.62
2018-04-02T04:53:07.680Z,95716.14
2018-04-02T04:55:36.000Z,95716.68
2018-04-02T04:58:03.801Z,95716.68
2018-04-02T05:00:32.908Z,95729.05
2018-04-02T05:03:00.477Z,95735.81
2018-04-02T05:05:28.047Z,95728.23
2018-04-02T05:07:55.664Z,95730.84
2018-04-02T05:10:23.471Z,95730.96
2018-04-02T05:12:51.086Z,95738.00
2018-04-02T05:15:19.061Z,95738.63
2018-04-02T05:17:46.760Z,95741.33
2018-04-02T05:20:14.414Z,95743.06
2018-04-02T05:22:42.028Z,95749.45
2018-04-02T05:25:10.210Z,95750.28
2018-04-02T05:30:27.862Z,95759.15
2018-04-02T05:32:55.408Z,95765.71
2018-04-02T05:35:23.083Z,95761.39
2018-04-02T05:37:52.158Z,95758.93
2018-04-02T05:40:19.723Z,95766.52
2018-04-02T05:42:47.331Z,95770.78
2018-04-02T05:45:15.330Z,95765.25
2018-04-02T05:47:43.113Z,95774.25
2018-04-02T05:50:22.391Z,95774.84
2018-04-02T05:52:49.951Z,95778.87
2018-04-02T05:55:17.966Z,95782.83
2018-04-02T05:57:45.568Z,95773.27
2018-04-02T06:00:13.337Z,95772.93
2018-04-02T06:02:40.942Z,95769.97
2018-04-02T06:05:08.909Z,95771.11
2018-04-02T06:07:36.558Z,95778.05
2018-04-02T06:10:04.171Z,95767.03
2018-04-02T06:12:34.381Z,95772.11
2018-04-02T06:15:04.014Z,95777.84
2018-04-02T06:17:31.667Z,95782.61
2018-04-02T06:20:02.670Z,95780.31
2018-04-02T06:22:31.599Z,95788.58
2018-04-02T06:25:01.184Z,95801.70
2018-04-02T06:27:29.483Z,95796.73
2018-04-02T06:29:58.839Z,95796.14
2018-04-02T06:32:31.704Z,95796.23
2018-04-02T06:35:06.420Z,95809.73
2018-04-02T06:37:34.511Z,95809.84
2018-04-02T06:40:02.468Z,95820.84
2018-04-02T06:42:31.354Z,95814.38
2018-04-02T06:44:59.636Z,95818.98
2018-04-02T06:47:31.340Z,95819.97
2018-04-02T06:49:58.918Z,95814.30
2018-04-02T06:52:27.558Z,95815.33
2018-04-02T06:54:59.466Z,95813.40
2018-04-02T06:57:27.348Z,95812.69
2018-04-02T06:59:55.470Z,95814.57
2018-04-02T07:02:23.492Z,95809.53
2018-04-02T07:04:51.096Z,95816.09
2018-04-02T07:07:20.115Z,95816.94
2018-04-02T07:09:47.785Z,95819.51
2018-04-02T07:12:15.402Z,95824.61
2018-04-02T07:14:42.984Z,95819.30
2018-04-02T07:17:11.435Z,95826.45
2018-04-02T07:19:39.042Z,95828.08
2018-04-02T07:22:06.602Z,95835.66
2018-04-02T07:24:34.267Z,95843.86
2018-04-02T07:27:02.011Z,95834.49
2018-04-02T07:29:29.968Z,95808.88
2018-04-02T07:31:57.618Z,95837.51
2018-04-02T07:34:27.017Z,95850.57
2018-04-02T07:36:54.881Z,95858.23
2018-04-02T07:39:22.981Z,95850.05
2018-04-02T07:41:50.690Z,95854.53
2018-04-02T07:44:18.522Z,95852.55
2018-04-02T07:46:46.070Z,95855.27
2018-04-02T07:49:15.845Z,95857.70
2018-04-02T07:51:43.688Z,95864.87
2018-04-02T07:54:12.724Z,95860.96
2018-04-02T07:56:40.291Z,95864.55
2018-04-02T07:59:08.105Z,95864.16
2018-04-02T08:01:35.716Z,95862.47
2018-04-02T08:04:03.580Z,95863.92
2018-04-02T08:06:31.269Z,95862.09
2018-04-02T08:08:59.197Z,95864.11
2018-04-02T08:11:26.867Z,95858.83
2018-04-02T08:13:54.539Z,95864.06
2018-04-02T08:16:23.900Z,95864.85
2018-04-02T08:18:51.457Z,95865.33
2018-04-02T08:21:19.397Z,95870.05
2018-04-02T08:23:47.024Z,95862.23
2018-04-02T08:26:14.680Z,95872.80
2018-04-02T08:28:42.315Z,95868.98
2018-04-02T08:31:11.070Z,95875.84
2018-04-02T08:33:39.030Z,95871.24
2018-04-02T08:36:06.707Z,95855.37
2018-04-02T08:38:34.348Z,95877.42
2018-04-02T08:41:02.217Z,95870.53
2018-04-02T08:43:30.377Z,95874.05
2018-04-02T08:45:57.951Z,95875.41
2018-04-02T08:48:26.448Z,95887.24
2018-04-02T08:50:53.997Z,95890.67
2018-04-02T08:53:21.599Z,95894.25
2018-04-02T08:55:49.183Z,95887.02
2018-04-02T08:58:16.751Z,95903.75
2018-04-02T09:00:44.379Z,95888.50
2018-04-02T09:03:12.824Z,95902.20
2018-04-02T09:05:40.418Z,95903.13
2018-04-02T09:08:08.033Z,95890.75
2018-04-02T09:10:36.844Z,95887.50
2018-04-02T09:13:04.682Z,95887.38
2018-04-02T09:15:32.278Z,95880.01
2018-04-02T09:17:59.897Z,95882.78
2018-04-02T09:20:27.458Z,95875.97
2018-04-02T09:22:55.216Z,95887.67
2018-04-02T09:25:23.211Z,95885.28
2018-04-02T09:27:50.812Z,95886.08
2018-04-02T09:30:18.695Z,95887.83
2018-04-02T09:32:46.280Z,95878.89
2018-04-02T09:35:14.329Z,95883.82
2018-04-02T09:37:41.965Z,95887.81
2018-04-02T09:40:09.553Z,95887.69
2018-04-02T09:42:37.226Z,95882.67
2018-04-02T09:45:05.294Z,95845.20
2018-04-02T09:47:32.897Z,95874.91
2018-04-02T09:50:00.775Z,95878.77
2018-04-02T09:52:28.406Z,95883.67
2018-04-02T09:54:56.008Z,95885.11
2018-04-02T09:57:23.916Z,95875.80
2018-04-02T09:59:51.522Z,95880.38
2018-04-02T10:02:22.135Z,95879.58
2018-04-02T10:04:49.877Z,95880.97
2018-04-02T10:07:17.482Z,95865.34
2018-04-02T10:09:45.094Z,95871.42
2018-04-02T10:15:04.943Z,95863.05
2018-04-02T10:17:34.415Z,95865.06
2018-04-02T10:20:06.412Z,95852.87
2018-04-02T10:22:34.089Z,95855.89
2018-04-02T10:27:56.146Z,95836.84
2018-04-02T10:30:23.760Z,95836.97
2018-04-02T10:32:57.239Z,95839.66
2018-04-02T10:35:28.797Z,95834.28
2018-04-02T10:37:58.061Z,95833.06
2018-04-02T10:40:25.931Z,95830.42
2018-04-02T10:42:53.576Z,95840.91
2018-04-02T10:45:21.405Z,95835.64
2018-04-02T10:47:51.503Z,95829.20
2018-04-02T10:50:19.104Z,95825.19
2018-04-02T10:52:49.189Z,95813.77
2018-04-02T10:55:16.903Z,95822.11
2018-04-02T10:57:47.304Z,95826.64
2018-04-02T11:00:19.083Z,95827.19
2018-04-02T11:02:46.675Z,95827.09
2018-04-02T11:05:14.598Z,95824.30
2018-04-02T11:07:42.233Z,95823.06
2018-04-02T11:10:09.952Z,95817.92
2018-04-02T11:12:37.546Z,95817.14
2018-04-02T11:15:05.328Z,95815.33
2018-04-02T11:17:34.262Z,95815.17
2018-04-02T11:20:01.872Z,95809.54
2018-04-02T11:22:29.488Z,95802.37
2018-04-02T11:24:57.083Z,95803.36
2018-04-02T11:27:24.671Z,95795.05
2018-04-02T11:29:52.338Z,95797.27
2018-04-02T11:32:19.921Z,95787.56
2018-04-02T11:34:47.494Z,95790.23
2018-04-02T11:37:15.122Z,95780.41
2018-04-02T11:39:42.671Z,95782.75
2018-04-02T11:42:10.271Z,95792.50
2018-04-02T11:44:37.879Z,95776.28
2018-04-02T11:47:05.487Z,95772.92
2018-04-02T11:49:33.082Z,95761.06
2018-04-02T11:52:00.725Z,95760.09
2018-04-02T11:54:28.303Z,95762.03
2018-04-02T11:56:55.898Z,95761.06
2018-04-02T11:59:23.549Z,95767.38
2018-04-02T12:01:51.165Z,95747.99
2018-04-02T12:04:18.749Z,95748.33
2018-04-02T12:06:46.960Z,95740.77
2018-04-02T12:09:14.674Z,95746.61
2018-04-02T12:11:42.274Z,95740.69
2018-04-02T12:14:09.906Z,95747.98
2018-04-02T12:16:38.363Z,95751.06
2018-04-02T12:19:05.917Z,95743.26
2018-04-02T12:21:34.055Z,95746.23
2018-04-02T12:24:01.637Z,95738.38
2018-04-02T12:26:29.244Z,95742.61
2018-04-02T12:28:56.817Z,95731.02
2018-04-02T12:31:26.951Z,95726.97
2018-04-02T12:33:54.548Z,95720.58
2018-04-02T12:36:22.365Z,95713.97
2018-04-02T12:38:50.318Z,95711.85
2018-04-02T12:41:18.360Z,95709.36
2018-04-02T12:43:45.966Z,95705.88
2018-04-02T12:46:14.316Z,95712.53
2018-04-02T12:48:42.362Z,95694.75
2018-04-02T12:51:10.861Z,95686.55
2018-04-02T12:53:38.840Z,95684.09
2018-04-02T12:56:06.427Z,95687.67
2018-04-02T12:58:34.011Z,95689.98
2018-04-02T13:01:01.588Z,95676.47
2018-04-02T13:03:29.804Z,95679.29
2018-04-02T13:05:57.397Z,95673.09
2018-04-02T13:08:24.994Z,95676.91
2018-04-02T13:10:52.606Z,95672.39
2018-04-02T13:13:20.661Z,95680.48
2018-04-02T13:15:48.317Z,95675.73
2018-04-02T13:18:16.748Z,95678.91
2018-04-02T13:20:44.320Z,95660.47
2018-04-02T13:23:12.005Z,95667.06
2018-04-02T13:25:43.533Z,95661.73
2018-04-02T13:28:11.135Z,95660.84
2018-04-02T13:30:38.757Z,95666.09
2018-04-02T13:33:06.477Z,95648.55
2018-04-02T13:35:34.194Z,95646.84
2018-04-02T13:38:01.847Z,95652.03
2018-04-02T13:40:29.448Z,95648.74
2018-04-02T13:43:00.650Z,95653.77
2018-04-02T13:45:28.291Z,95646.19
2018-04-02T13:47:55.868Z,95648.83
2018-04-02T13:50:23.503Z,95636.13
2018-04-02T13:52:51.083Z,95645.57
2018-04-02T13:55:18.705Z,95638.33
2018-04-02T13:57:46.409Z,95631.70
2018-04-02T14:00:13.988Z,95636.98
2018-04-02T14:02:41.567Z,95636.66
2018-04-02T14:05:09.245Z,95632.44
2018-04-02T14:07:38.572Z,95624.73
2018-04-02T14:10:06.821Z,95623.48
2018-04-02T14:12:34.581Z,95626.89
2018-04-02T14:15:03.540Z,95636.19
2018-04-02T14:17:31.772Z,95626.30
2018-04-02T14:20:01.457Z,95626.84
2018-04-02T14:22:29.114Z,95622.95
2018-04-02T14:24:56.684Z,95617.48
2018-04-02T14:27:24.325Z,95615.05
2018-04-02T14:29:52.124Z,95612.41
2018-04-02T14:32:21.272Z,95612.95
2018-04-02T14:34:49.525Z,95606.28
2018-04-02T14:37:17.886Z,95601.59
2018-04-02T14:39:46.945Z,95602.52
2018-04-02T14:42:17.441Z,95601.38
2018-04-02T14:44:45.416Z,95605.78
2018-04-02T14:47:13.077Z,95597.36
2018-04-02T14:49:43.361Z,95592.82
2018-04-02T14:52:13.289Z,95591.48
2018-04-02T14:54:43.020Z,95591.61
2018-04-02T14:57:11.057Z,95589.43
2018-04-02T14:59:38.875Z,95585.38
2018-04-02T15:02:06.491Z,95591.84
2018-04-02T15:04:34.102Z,95585.21
2018-04-02T15:07:01.680Z,95582.59
2018-04-02T15:09:29.311Z,95587.91
2018-04-02T15:11:56.927Z,95585.42
2018-04-02T15:14:24.552Z,95576.22
2018-04-02T15:16:52.119Z,95572.36
2018-04-02T15:19:19.757Z,95566.74
2018-04-02T15:21:47.341Z,95576.83
2018-04-02T15:24:14.946Z,95566.52
2018-04-02T15:26:42.817Z,95562.83
2018-04-02T15:29:10.974Z,95552.94
2018-04-02T15:31:38.545Z,95552.23
2018-04-02T15:34:06.164Z,95557.79
2018-04-02T15:36:33.800Z,95544.91
2018-04-02T15:39:01.426Z,95548.56
2018-04-02T15:41:29.028Z,95543.90
2018-04-02T15:43:56.599Z,95547.37
2018-04-02T15:46:25.094Z,95548.69
2018-04-02T15:48:52.697Z,95543.03
2018-04-02T15:51:20.389Z,95535.37
2018-04-02T15:53:48.384Z,95535.05
2018-04-02T15:56:16.008Z,95528.61
2018-04-02T15:58:43.698Z,95528.02
2018-04-02T16:01:11.295Z,95515.27
2018-04-02T16:03:38.915Z,95521.58
2018-04-02T16:06:06.610Z,95526.53
2018-04-02T16:08:34.304Z,95523.28
2018-04-02T16:11:01.926Z,95515.60
2018-04-02T16:13:29.666Z,95510.98
2018-04-02T16:15:57.291Z,95512.59
2018-04-02T16:18:25.240Z,95516.66
2018-04-02T16:20:52.820Z,95522.44
2018-04-02T16:23:21.498Z,95523.73
2018-04-02T16:25:50.001Z,95514.41
2018-04-02T16:28:17.618Z,95522.88
2018-04-02T16:30:45.218Z,95521.64
2018-04-02T16:33:13.732Z,95523.45
2018-04-02T16:35:41.381Z,95521.04
2018-04-02T16:38:09.280Z,95534.27
2018-04-02T16:40:37.986Z,95519.05
2018-04-02T16:43:05.604Z,95524.34
2018-04-02T16:45:33.321Z,95519.51
2018-04-02T16:48:00.980Z,95517.22
2018-04-02T16:50:28.583Z,95518.67
2018-04-02T16:52:56.181Z,95518.34
2018-04-02T16:55:24.694Z,95516.13
2018-04-02T16:57:52.290Z,95515.42
2018-04-02T17:00:19.892Z,95524.89
2018-04-02T17:02:47.520Z,95522.30
2018-04-02T17:05:15.567Z,95517.25
2018-04-02T17:07:43.626Z,95520.92
2018-04-02T17:10:12.385Z,95517.70
2018-04-02T17:12:40.029Z,95526.84
2018-04-02T17:15:08.310Z,95529.91
2018-04-02T17:17:37.012Z,95521.31
2018-04-02T17:20:04.634Z,95521.02
2018-04-02T17:22:32.270Z,95523.23
2018-04-02T17:24:59.863Z,95524.39
2018-04-02T17:27:29.082Z,95522.31
2018-04-02T17:29:56.728Z,95521.86
2018-04-02T17:32:25.263Z,95525.63
2018-04-02T17:34:53.240Z,95520.39
2018-04-02T17:37:21.404Z,95524.55
2018-04-02T17:39:48.975Z,95523.52
2018-04-02T17:42:16.549Z,95523.88
2018-04-02T17:44:44.130Z,95522.44
2018-04-02T17:47:12.268Z,95525.20
2018-04-02T17:49:39.860Z,95524.64
2018-04-02T17:52:07.462Z,95531.70
2018-04-02T17:54:35.062Z,95530.59
2018-04-02T17:57:02.636Z,95530.62
2018-04-02T17:59:30.257Z,95539.52
2018-04-02T18:01:58.637Z,95532.97
2018-04-02T18:04:26.595Z,95525.56
2018-04-02T18:06:54.624Z,95526.41
2018-04-02T18:09:23.258Z,95527.86
2018-04-02T18:11:50.834Z,95530.39
2018-04-02T18:14:18.723Z,95524.02
2018-04-02T18:16:46.395Z,95525.86
2018-04-02T18:19:14.094Z,95531.13
2018-04-02T18:21:41.684Z,95526.47
2018-04-02T18:24:09.984Z,95523.86
2018-04-02T18:26:37.600Z,95528.41
2018-04-02T18:29:05.153Z,95533.22
2018-04-02T18:31:32.794Z,95533.19
2018-04-02T18:34:00.351Z,95531.62
2018-04-02T18:36:28.615Z,95528.63
2018-04-02T18:38:56.479Z,95534.52
2018-04-02T18:41:24.188Z,95534.79
2018-04-02T18:43:51.850Z,95537.05
2018-04-02T18:46:19.404Z,95532.37
2018-04-02T18:48:46.951Z,95539.33
2018-04-02T18:51:15.027Z,95542.29
2018-04-02T18:53:42.676Z,95536.79
2018-04-02T18:56:10.375Z,95539.64
2018-04-02T18:58:38.267Z,95536.61
2018-04-02T19:01:05.843Z,95536.72
2018-04-02T19:03:33.440Z,95542.73
2018-04-02T19:06:00.964Z,95532.64
2018-04-02T19:08:28.542Z,95532.59
2018-04-02T19:10:56.119Z,95528.89
2018-04-02T19:13:24.067Z,95526.42
2018-04-02T19:15:51.728Z,95523.20
2018-04-02T19:18:19.298Z,95524.25
2018-04-02T19:20:46.855Z,95521.44
2018-04-02T19:23:14.798Z,95519.68
2018-04-02T19:25:42.565Z,95517.73
2018-04-02T19:28:10.225Z,95518.67
2018-04-02T19:30:37.800Z,95510.56
2018-04-02T19:33:05.624Z,95509.16
2018-04-02T19:35:33.542Z,95513.77
2018-04-02T19:38:01.428Z,95513.48
2018-04-02T19:40:29.219Z,95510.64
2018-04-02T19:42:56.794Z,95507.89
2018-04-02T19:45:24.440Z,95512.20
2018-04-02T19:47:52.150Z,95511.15
2018-04-02T19:50:19.724Z,95508.00
2018-04-02T19:52:47.310Z,95510.70
2018-04-02T19:55:15.005Z,95510.98
2018-04-02T19:57:42.657Z,95516.17
2018-04-02T20:00:10.278Z,95504.63
2018-04-02T20:02:37.871Z,95502.69
2018-04-02T20:05:05.768Z,95498.29
2018-04-02T20:07:33.551Z,95507.38
2018-04-02T20:10:01.111Z,95504.13
2018-04-02T20:12:28.666Z,95504.64
2018-04-02T20:14:56.276Z,95502.55
2018-04-02T20:17:23.840Z,95500.80
2018-04-02T20:19:51.645Z,95497.63
2018-04-02T20:22:19.438Z,95496.05
2018-04-02T20:24:46.989Z,95494.34
2018-04-02T20:27:14.570Z,95492.27
2018-04-02T20:29:42.148Z,95494.14
2018-04-02T20:32:09.830Z,95494.38
2018-04-02T20:34:37.384Z,95496.02
2018-04-02T20:37:05.139Z,95504.17
2018-04-02T20:39:33.069Z,95494.66
2018-04-02T20:42:00.634Z,95500.05
2018-04-02T20:44:28.429Z,95496.34
2018-04-02T20:46:55.979Z,95500.26
2018-04-02T20:49:23.523Z,95505.72
2018-04-02T20:51:51.125Z,95503.17
2018-04-02T20:54:18.693Z,95506.68
2018-04-02T20:56:46.192Z,95502.16
2018-04-02T20:59:14.716Z,95505.61
2018-04-02T21:01:42.263Z,95501.14
2018-04-02T21:04:10.235Z,95498.39
2018-04-02T21:06:37.838Z,95499.40
2018-04-02T21:09:07.693Z,95483.81
2018-04-02T21:11:35.949Z,95487.50
2018-04-02T21:14:03.621Z,95481.88
2018-04-02T21:16:31.167Z,95481.63
2018-04-02T21:18:59.665Z,95475.02
2018-04-02T21:21:27.237Z,95474.77
2018-04-02T21:23:54.792Z,95477.11
2018-04-02T21:26:22.370Z,95477.97
2018-04-02T21:28:49.932Z,95475.55
2018-04-02T21:31:17.480Z,95477.11
2018-04-02T21:33:45.041Z,95482.96
2018-04-02T21:36:12.597Z,95471.66
2018-04-02T21:38:40.142Z,95476.93
2018-04-02T21:41:07.777Z,95477.53
2018-04-02T21:43:35.317Z,95478.48
2018-04-02T21:46:02.870Z,95476.92
2018-04-02T21:48:30.414Z,95469.86
2018-04-02T21:50:57.976Z,95475.80
2018-04-02T21:53:25.728Z,95479.41
2018-04-02T21:55:53.278Z,95475.30
2018-04-02T21:58:20.829Z,95479.22
2018-04-02T22:00:48.377Z,95473.56
2018-04-02T22:03:15.979Z,95460.63
2018-04-02T22:05:43.576Z,95465.34
2018-04-02T22:08:11.233Z,95463.90
2018-04-02T22:10:38.817Z,95458.52
2018-04-02T22:13:06.795Z,95457.49
2018-04-02T22:15:34.355Z,95453.34
2018-04-02T22:18:01.905Z,95452.69
2018-04-02T22:20:29.917Z,95448.65
2018-04-02T22:22:57.465Z,95445.08
2018-04-02T22:25:25.140Z,95447.55
2018-04-02T22:27:52.721Z,95447.20
2018-04-02T22:30:20.312Z,95447.02
2018-04-02T22:32:47.907Z,95444.20
2018-04-02T22:35:15.690Z,95444.22
2018-04-02T22:37:43.653Z,95442.39
2018-04-02T22:40:11.257Z,95443.72
2018-04-02T22:42:40.220Z,95446.95
2018-04-02T22:45:08.666Z,95439.96
2018-04-02T22:47:36.260Z,95446.07
2018-04-02T22:50:03.838Z,95440.75
2018-04-02T22:52:31.391Z,95445.23
2018-04-02T22:54:58.950Z,95444.34
2018-04-02T22:57:26.535Z,95441.05
2018-04-02T22:59:54.072Z,95443.83
2018-04-02T23:02:21.651Z,95442.55
2018-04-02T23:04:49.199Z,95444.73
2018-04-02T23:07:16.795Z,95438.20
2018-04-02T23:09:44.348Z,95443.66
2018-04-02T23:12:11.876Z,95438.59
2018-04-02T23:14:39.429Z,95438.33
2018-04-02T23:17:07.080Z,95437.38
2018-04-02T23:19:34.686Z,95434.94
2018-04-02T23:22:02.241Z,95433.77
2018-04-02T23:24:29.799Z,95448.69
2018-04-02T23:26:57.358Z,95434.42
2018-04-02T23:29:24.894Z,95436.27
2018-04-02T23:31:52.426Z,95421.81
2018-04-02T23:34:19.984Z,95425.02
2018-04-02T23:36:47.531Z,95428.28
2018-04-02T23:39:24.026Z,95432.22
2018-04-02T23:41:51.604Z,95424.27
2018-04-02T23:44:19.162Z,95416.95
2018-04-02T23:46:46.715Z,95419.81
2018-04-02T23:49:14.264Z,95416.52
2018-04-02T23:51:41.811Z,95419.59
2018-04-02T23:54:09.423Z,95422.48
2018-04-02T23:56:36.968Z,95414.99
2018-04-02T23:59:04.535Z,95419.92
